Time;durP1;ratioP1;P1;durP2;ratioP2;P2;SDS_P1;SDS_P2;PMS_P1;PMS_P2;Temp;Humidity;BMP_temperature;BMP_pressure;BME280_temperature;BME280_humidity;BME280_pressure;Samples;Min_cycle;Max_cycle;Signal;HPM_P1;HPM_P2
2022/11/23 00:01:10;;;;;;;;;6.00;6.00;;;;;8.29;73.30;99108.72;5074952;28;45366;-73
2022/11/23 00:03:36;;;;;;;;;6.00;6.00;;;;;8.23;73.45;99094.16;5075366;27;45457;-72
2022/11/23 00:06:01;;;;;;;;;18.75;17.25;;;;;8.19;73.77;99100.50;5073152;28;47202;-72
2022/11/23 00:08:26;;;;;;;;;10.50;8.75;;;;;8.14;73.68;99099.91;5074847;27;45396;-72
2022/11/23 00:10:52;;;;;;;;;10.00;8.00;;;;;8.14;73.68;99102.53;5075377;28;51018;-75
2022/11/23 00:13:17;;;;;;;;;8.00;7.00;;;;;8.08;73.70;99100.22;5075133;28;45287;-70
2022/11/23 00:15:42;;;;;;;;;7.00;7.00;;;;;8.05;73.87;99096.03;5074851;27;45354;-71
2022/11/23 00:18:08;;;;;;;;;7.25;7.00;;;;;7.99;74.09;99089.31;5073193;27;45379;-71
2022/11/23 00:20:33;;;;;;;;;7.25;7.25;;;;;7.95;74.09;99086.94;5074915;28;45466;-72
2022/11/23 00:22:58;;;;;;;;;7.25;7.25;;;;;7.93;74.32;99087.03;5074935;28;45319;-70
2022/11/23 00:25:24;;;;;;;;;8.00;6.00;;;;;7.84;73.97;99079.66;5074936;27;45220;-72
2022/11/23 00:27:49;;;;;;;;;6.25;6.25;;;;;7.81;75.03;99085.06;5074313;27;45260;-73
2022/11/23 00:30:15;;;;;;;;;7.00;7.00;;;;;7.82;75.33;99092.81;5074342;28;51675;-72
2022/11/23 00:32:40;;;;;;;;;6.50;6.50;;;;;7.78;74.97;99096.53;5075022;27;45246;-71
2022/11/23 00:35:06;;;;;;;;;9.50;8.50;;;;;7.72;75.31;99087.25;5074671;27;45532;-72
2022/11/23 00:37:31;;;;;;;;;6.25;6.00;;;;;7.62;75.52;99072.94;5074580;27;45324;-72
2022/11/23 00:39:56;;;;;;;;;9.00;9.00;;;;;7.68;75.80;99088.34;5075086;27;45375;-71
2022/11/23 00:42:22;;;;;;;;;7.00;7.00;;;;;7.62;75.41;99077.31;5074742;28;45408;-70
2022/11/23 00:44:47;;;;;;;;;12.00;9.75;;;;;7.62;75.72;99080.81;5073352;28;47534;-72
2022/11/23 00:47:12;;;;;;;;;11.50;9.00;;;;;7.61;75.82;99084.34;5074084;27;45217;-72
2022/11/23 00:49:37;;;;;;;;;8.50;7.50;;;;;7.57;76.26;99080.19;5074494;27;45425;-72
2022/11/23 00:52:03;;;;;;;;;10.50;7.75;;;;;7.55;75.82;99077.66;5074295;27;45433;-72
2022/11/23 00:54:28;;;;;;;;;8.50;8.25;;;;;7.56;76.56;99075.88;5074053;28;46430;-70
2022/11/23 00:56:54;;;;;;;;;8.25;8.25;;;;;7.53;76.00;99071.66;5074452;28;45370;-72
2022/11/23 00:59:19;;;;;;;;;5.50;5.50;;;;;7.51;76.61;99080.50;5074503;27;45429;-70
2022/11/23 01:01:44;;;;;;;;;8.25;7.00;;;;;7.49;76.49;99066.66;5072934;28;45611;-74
2022/11/23 01:04:10;;;;;;;;;7.50;7.00;;;;;7.51;76.49;99075.28;5073391;28;62665;-71
2022/11/23 01:06:38;;;;;;;;;9.00;9.00;;;;;7.49;76.21;99074.50;5074018;27;45333;-71
2022/11/23 01:09:08;;;;;;;;;7.50;7.50;;;;;7.45;76.63;99064.22;5074418;27;45401;-72
2022/11/23 01:11:34;;;;;;;;;8.00;7.75;;;;;7.48;76.81;99067.59;5074006;27;45414;-73
2022/11/23 01:13:59;;;;;;;;;6.00;6.00;;;;;7.47;76.79;99073.75;5074168;27;46689;-73
2022/11/23 01:16:28;;;;;;;;;8.00;6.25;;;;;7.46;77.58;99070.28;5074827;27;45282;-72
2022/11/23 01:18:59;;;;;;;;;6.00;6.00;;;;;7.46;77.21;99067.66;5074336;27;45303;-73
2022/11/23 01:21:25;;;;;;;;;6.00;6.00;;;;;7.42;77.23;99060.91;5074207;27;45400;-72
2022/11/23 01:23:51;;;;;;;;;6.50;5.25;;;;;7.41;77.11;99069.66;5073705;28;45455;-71
2022/11/23 01:26:17;;;;;;;;;7.50;7.00;;;;;7.38;77.54;99060.19;5089151;27;45361;-72
2022/11/23 01:28:42;;;;;;;;;8.50;8.00;;;;;7.37;77.46;99055.88;5074193;28;45298;-72
2022/11/23 01:31:14;;;;;;;;;6.75;6.75;;;;;7.36;77.55;99059.41;5074469;27;45657;-72
2022/11/23 01:33:40;;;;;;;;;6.25;6.25;;;;;7.34;77.59;99049.97;5074650;27;45475;-75
2022/11/23 01:36:09;;;;;;;;;7.00;7.00;;;;;7.30;78.02;99047.53;5074162;27;45370;-72
2022/11/23 01:38:35;;;;;;;;;8.50;8.00;;;;;7.29;77.92;99043.22;5074654;27;45237;-72
2022/11/23 01:41:00;;;;;;;;;11.00;10.75;;;;;7.29;77.81;99034.50;5074225;27;45220;-73
2022/11/23 01:43:25;;;;;;;;;10.75;9.25;;;;;7.26;77.51;99032.06;5073827;27;46187;-73
2022/11/23 01:45:56;;;;;;;;;13.25;12.50;;;;;7.18;77.61;99024.63;5073976;27;45394;-73
2022/11/23 01:48:35;;;;;;;;;12.50;12.50;;;;;7.20;78.21;99024.53;5073987;27;45383;-73
2022/11/23 01:51:08;;;;;;;;;13.25;13.25;;;;;7.15;78.27;99023.00;5074748;27;45235;-71
2022/11/23 01:53:33;;;;;;;;;7.75;7.75;;;;;7.07;78.28;99014.69;5073305;27;46420;-72
2022/11/23 01:56:03;;;;;;;;;10.25;10.25;;;;;6.81;78.35;98972.41;5073926;27;45220;-71
2022/11/23 01:58:35;;;;;;;;;11.50;11.25;;;;;7.04;78.37;99012.22;5074573;27;45359;-74
2022/11/23 02:01:01;;;;;;;;;12.25;12.25;;;;;6.97;78.58;99006.50;5077575;27;45256;-71
2022/11/23 02:03:29;;;;;;;;;13.50;13.50;;;;;6.94;79.91;99006.63;5076929;27;46546;-72
2022/11/23 02:06:00;;;;;;;;;13.00;12.25;;;;;6.92;79.70;99018.09;5076940;28;45492;-72
2022/11/23 02:08:27;;;;;;;;;12.50;11.00;;;;;6.85;79.96;99005.31;5077030;28;45252;-71
2022/11/23 02:10:55;;;;;;;;;10.75;10.75;;;;;6.88;80.46;99012.16;5077250;27;45477;-72
2022/11/23 02:13:21;;;;;;;;;11.25;11.25;;;;;6.89;80.53;99007.78;5076717;27;45529;-72
2022/11/23 02:15:47;;;;;;;;;12.00;11.25;;;;;6.87;80.45;99000.88;5076662;27;45390;-73
2022/11/23 02:18:18;;;;;;;;;9.50;9.50;;;;;6.88;79.96;98996.47;5075399;28;45394;-73
2022/11/23 02:20:44;;;;;;;;;10.50;8.25;;;;;6.89;80.21;98997.31;5077433;27;45912;-71
2022/11/23 02:23:25;;;;;;;;;8.00;8.00;;;;;6.87;80.07;99000.88;5075243;28;48177;-72
2022/11/23 02:26:08;;;;;;;;;12.00;12.00;;;;;6.92;80.72;99007.63;5076424;27;45223;-72
2022/11/23 02:28:42;;;;;;;;;9.75;9.25;;;;;6.95;81.00;98999.63;5076471;27;45295;-72
2022/11/23 02:31:07;;;;;;;;;10.00;10.00;;;;;6.96;81.70;99001.31;5077138;27;45411;-74
2022/11/23 02:33:33;;;;;;;;;11.25;10.00;;;;;7.03;81.02;98996.63;5077109;27;45330;-71
2022/11/23 02:36:00;;;;;;;;;12.50;12.50;;;;;7.05;80.43;99003.47;5076103;28;50379;-73
2022/11/23 02:38:29;;;;;;;;;8.50;7.50;;;;;7.08;81.40;98992.84;5076727;28;45281;-72
2022/11/23 02:40:55;;;;;;;;;10.00;10.00;;;;;7.06;81.50;98996.47;5076909;27;45616;-72
2022/11/23 02:43:21;;;;;;;;;7.50;7.00;;;;;7.11;81.12;98989.25;5075862;27;45438;-72
2022/11/23 02:46:00;;;;;;;;;8.00;8.00;;;;;7.12;80.31;98993.56;5076357;27;45414;-73
2022/11/23 02:48:25;;;;;;;;;6.75;6.75;;;;;7.16;80.96;98987.25;5076330;27;45239;-73
2022/11/23 02:50:51;;;;;;;;;11.75;10.00;;;;;7.13;81.17;98980.38;5076573;27;45176;-73
2022/11/23 02:53:17;;;;;;;;;7.50;7.50;;;;;7.13;81.33;98985.63;5075960;27;45607;-72
2022/11/23 02:55:42;;;;;;;;;9.75;9.75;;;;;7.15;81.62;98986.38;5076480;27;45258;-74
2022/11/23 02:58:08;;;;;;;;;8.25;7.75;;;;;7.14;80.69;98982.06;5076158;27;45405;-72
2022/11/23 03:00:34;;;;;;;;;8.75;8.75;;;;;7.14;81.13;98976.84;5077052;27;45326;-73
2022/11/23 03:03:01;;;;;;;;;11.25;11.25;;;;;7.18;81.38;98976.69;5075961;27;45344;-72
2022/11/23 03:05:26;;;;;;;;;10.25;10.25;;;;;7.18;81.30;98967.09;5074454;28;45367;-72
2022/11/23 03:07:52;;;;;;;;;10.00;10.00;;;;;7.20;81.58;98972.22;5075813;27;45261;-71
2022/11/23 03:10:18;;;;;;;;;8.75;8.75;;;;;7.25;81.82;98963.22;5073755;28;45413;-72
2022/11/23 03:12:44;;;;;;;;;10.25;10.25;;;;;7.26;80.71;98962.28;5075819;27;46290;-73
2022/11/23 03:15:10;;;;;;;;;11.75;11.75;;;;;7.23;81.24;98957.22;5075636;27;45260;-72
2022/11/23 03:17:35;;;;;;;;;8.00;8.00;;;;;7.26;80.71;98957.06;5076272;27;45397;-73
2022/11/23 03:20:01;;;;;;;;;9.75;9.75;;;;;7.29;81.26;98956.03;5076172;27;45196;-72
2022/11/23 03:22:26;;;;;;;;;9.50;9.50;;;;;7.29;80.91;98953.44;5076091;27;45347;-73
2022/11/23 03:24:52;;;;;;;;;10.25;10.25;;;;;7.33;81.25;98952.34;5074202;28;45342;-72
2022/11/23 03:27:17;;;;;;;;;10.50;10.25;;;;;7.33;80.89;98943.66;5075410;28;45273;-72
2022/11/23 03:29:42;;;;;;;;;8.75;8.75;;;;;7.42;81.77;98954.50;5075722;27;45523;-73
2022/11/23 03:32:08;;;;;;;;;9.50;9.50;;;;;7.43;80.72;98943.09;5075258;27;46211;-72
2022/11/23 03:34:33;;;;;;;;;10.75;10.75;;;;;7.47;81.49;98937.69;5075870;27;45398;-73
2022/11/23 03:36:59;;;;;;;;;8.75;8.75;;;;;7.49;81.21;98941.09;5075733;27;45293;-73
2022/11/23 03:39:24;;;;;;;;;12.75;10.00;;;;;7.53;81.56;98940.81;5075246;27;45565;-71
2022/11/23 03:41:49;;;;;;;;;10.25;10.25;;;;;7.51;80.60;98937.44;5075061;27;45353;-71
2022/11/23 03:44:15;;;;;;;;;10.75;9.00;;;;;7.53;81.26;98929.53;5075137;27;45330;-71
2022/11/23 03:46:40;;;;;;;;;10.00;10.00;;;;;7.56;81.04;98934.59;5075228;27;45524;-72
2022/11/23 03:49:05;;;;;;;;;10.50;10.50;;;;;7.58;81.50;98917.03;5075540;27;45412;-74
2022/11/23 03:51:31;;;;;;;;;9.00;9.00;;;;;7.63;81.48;98920.25;5075343;27;45512;-76
2022/11/23 03:53:56;;;;;;;;;9.50;9.50;;;;;7.67;81.18;98923.53;5074947;27;45408;-71
2022/11/23 03:56:22;;;;;;;;;9.25;8.75;;;;;7.66;80.82;98922.69;5075094;27;45520;-72
2022/11/23 03:58:47;;;;;;;;;7.75;7.75;;;;;7.64;80.90;98927.16;5073781;28;45429;-72
2022/11/23 04:01:12;;;;;;;;;7.50;7.50;;;;;7.68;80.74;98933.06;5075294;28;45416;-72
2022/11/23 04:03:37;;;;;;;;;9.25;7.75;;;;;7.66;81.50;98929.69;5074192;28;45566;-71
2022/11/23 04:06:03;;;;;;;;;10.00;10.00;;;;;7.64;80.89;98915.84;5074633;28;55153;-70
2022/11/23 04:08:28;;;;;;;;;10.50;10.50;;;;;7.66;81.12;98911.38;5075097;28;45570;-71
2022/11/23 04:10:57;;;;;;;;;8.00;8.00;;;;;7.70;81.61;98911.13;5075002;27;46261;-71
2022/11/23 04:13:23;;;;;;;;;10.50;10.00;;;;;7.73;81.60;98910.09;5074809;27;45260;-71
2022/11/23 04:15:48;;;;;;;;;11.00;11.00;;;;;7.73;81.56;98913.56;5074643;28;45373;-71
2022/11/23 04:18:14;;;;;;;;;8.50;8.50;;;;;7.74;81.08;98917.88;5074948;27;45255;-69
2022/11/23 04:20:39;;;;;;;;;10.50;9.25;;;;;7.72;82.05;98903.16;5075415;27;47691;-72
2022/11/23 04:23:04;;;;;;;;;11.00;10.50;;;;;7.77;82.00;98910.78;5074812;27;45396;-72
2022/11/23 04:25:30;;;;;;;;;11.25;10.50;;;;;7.75;81.38;98903.00;5074710;27;45650;-69
2022/11/23 04:27:55;;;;;;;;;10.25;9.50;;;;;7.78;80.99;98910.69;5074609;27;45529;-72
2022/11/23 04:30:20;;;;;;;;;6.75;6.50;;;;;7.76;81.57;98909.91;5072877;28;48353;-72
2022/11/23 04:32:46;;;;;;;;;8.25;8.25;;;;;7.74;82.09;98899.56;5074495;27;45385;-72
2022/11/23 04:35:12;;;;;;;;;12.00;12.00;;;;;7.77;82.33;98902.94;5074578;28;45302;-71
2022/11/23 04:37:37;;;;;;;;;8.50;8.50;;;;;7.76;81.63;98907.31;5074946;28;45305;-71
2022/11/23 04:40:03;;;;;;;;;0.00;0.00;;;;;7.73;82.33;98890.00;5072902;28;47325;-72
2022/11/23 04:42:28;;;;;;;;;10.50;10.00;;;;;7.78;82.17;98894.97;5074549;27;45340;-73
2022/11/23 04:44:54;;;;;;;;;8.25;8.25;;;;;7.74;82.56;98885.59;5074323;27;51579;-72
2022/11/23 04:47:20;;;;;;;;;8.75;8.75;;;;;7.81;83.00;98888.75;5074656;27;45237;-72
2022/11/23 04:49:45;;;;;;;;;9.25;9.25;;;;;7.83;82.84;98886.88;5074093;28;45641;-72
2022/11/23 04:52:11;;;;;;;;;11.50;11.50;;;;;7.85;82.91;98882.41;5074428;27;45277;-73
2022/11/23 04:54:36;;;;;;;;;11.50;10.75;;;;;7.86;82.34;98884.09;5073081;28;45436;-70
2022/11/23 04:57:01;;;;;;;;;12.25;11.00;;;;;7.88;82.96;98887.47;5074572;27;45203;-71
2022/11/23 04:59:27;;;;;;;;;12.00;12.00;;;;;7.87;82.67;98872.69;5074499;27;45217;-71
2022/11/23 05:01:52;;;;;;;;;10.00;10.00;;;;;7.82;82.50;98859.84;5073429;27;45283;-72
2022/11/23 05:04:18;;;;;;;;;9.00;9.00;;;;;7.82;83.30;98877.34;5074736;27;45425;-71
2022/11/23 05:06:44;;;;;;;;;7.50;7.50;;;;;7.77;83.05;98866.28;5074578;28;45599;-71
2022/11/23 05:09:10;;;;;;;;;6.75;6.75;;;;;7.80;83.34;98881.81;5074163;28;45698;-70
2022/11/23 05:11:35;;;;;;;;;11.25;11.25;;;;;7.79;83.57;98870.50;5073889;27;45400;-71
2022/11/23 05:14:01;;;;;;;;;8.75;8.75;;;;;7.75;83.95;98859.38;5074381;27;45414;-70
2022/11/23 05:16:26;;;;;;;;;9.00;9.00;;;;;7.73;84.05;98868.22;5074318;28;45474;-71
2022/11/23 05:18:51;;;;;;;;;12.25;10.75;;;;;7.68;84.10;98863.25;5073964;27;46419;-74
2022/11/23 05:21:17;;;;;;;;;10.00;10.00;;;;;7.69;83.90;98864.94;5072670;28;45353;-72
2022/11/23 05:23:42;;;;;;;;;10.50;10.50;;;;;7.65;84.15;98862.56;5074387;27;45395;-72
2022/11/23 05:26:07;;;;;;;;;8.75;8.75;;;;;7.67;83.95;98866.81;5074630;27;45566;-72
2022/11/23 05:28:33;;;;;;;;;18.75;18.75;;;;;7.70;84.24;98869.25;5073784;27;45613;-71
2022/11/23 05:30:58;;;;;;;;;9.00;9.00;;;;;7.74;84.51;98865.53;5073934;27;45278;-74
2022/11/23 05:33:24;;;;;;;;;10.00;9.00;;;;;7.78;84.67;98870.59;5074016;27;45308;-74
2022/11/23 05:35:49;;;;;;;;;10.00;10.00;;;;;7.79;84.60;98872.28;5077359;27;45612;-73
2022/11/23 05:38:14;;;;;;;;;12.00;10.75;;;;;7.66;84.63;98852.03;5077295;27;46170;-73
2022/11/23 05:40:40;;;;;;;;;9.75;9.75;;;;;7.82;84.80;98872.94;5077185;27;45387;-73
2022/11/23 05:43:05;;;;;;;;;9.50;9.50;;;;;7.85;84.42;98874.56;5077614;27;45212;-73
2022/11/23 05:45:30;;;;;;;;;10.25;10.25;;;;;7.88;84.13;98879.63;5076252;28;45331;-73
2022/11/23 05:47:58;;;;;;;;;11.00;11.00;;;;;7.89;83.97;98868.22;5076952;27;46306;-72
2022/11/23 05:50:25;;;;;;;;;15.25;12.50;;;;;7.90;84.43;98872.50;5075813;28;45478;-74
2022/11/23 05:52:51;;;;;;;;;15.00;15.00;;;;;7.90;84.61;98872.50;5077018;27;45444;-73
2022/11/23 05:55:16;;;;;;;;;11.00;11.00;;;;;7.97;84.15;98876.47;5077246;27;45478;-72
2022/11/23 05:57:41;;;;;;;;;12.25;12.25;;;;;8.00;84.21;98865.81;5075529;28;47925;-74
2022/11/23 06:00:11;;;;;;;;;12.75;11.00;;;;;8.03;84.26;98865.66;5075282;28;45973;-72
2022/11/23 06:02:38;;;;;;;;;12.75;12.75;;;;;8.07;83.81;98857.63;5076783;27;45257;-75
2022/11/23 06:05:04;;;;;;;;;12.00;12.00;;;;;8.07;84.29;98853.22;5076975;28;45357;-73
2022/11/23 06:07:33;;;;;;;;;12.75;12.75;;;;;8.11;84.03;98859.13;5076303;27;45521;-72
2022/11/23 06:09:59;;;;;;;;;15.25;15.25;;;;;8.12;84.05;98852.94;5076597;27;45453;-72
2022/11/23 06:12:26;;;;;;;;;15.50;13.25;;;;;8.13;84.14;98844.16;5076608;28;45236;-71
2022/11/23 06:14:52;;;;;;;;;8.75;8.75;;;;;8.23;83.58;98861.03;5075896;28;45612;-75
2022/11/23 06:17:17;;;;;;;;;14.00;13.75;;;;;8.28;83.72;98858.97;5076526;28;46470;-73
2022/11/23 06:19:42;;;;;;;;;8.00;8.00;;;;;8.33;83.48;98862.19;5076890;27;45338;-74
2022/11/23 06:22:08;;;;;;;;;9.25;9.25;;;;;8.36;83.66;98855.94;5075164;28;45271;-72
2022/11/23 06:24:33;;;;;;;;;8.75;8.75;;;;;8.36;83.46;98855.06;5075270;28;45318;-73
2022/11/23 06:26:59;;;;;;;;;14.00;13.00;;;;;8.40;83.41;98849.56;5091906;27;47592;-73
2022/11/23 06:29:24;;;;;;;;;11.00;11.00;;;;;8.47;83.48;98852.66;5074386;28;55146;-73
2022/11/23 06:31:49;;;;;;;;;11.50;11.50;;;;;8.46;82.83;98843.13;5076361;27;45274;-71
2022/11/23 06:34:15;;;;;;;;;7.25;7.25;;;;;8.51;83.42;98848.13;5075333;28;45342;-73
2022/11/23 06:36:40;;;;;;;;;10.75;10.75;;;;;8.53;83.09;98835.78;5076345;27;46348;-74
2022/11/23 06:39:05;;;;;;;;;8.50;8.50;;;;;8.53;82.67;98834.00;5076471;27;45843;-73
2022/11/23 06:41:31;;;;;;;;;7.75;7.75;;;;;8.53;82.82;98825.28;5077133;27;45896;-72
2022/11/23 06:43:56;;;;;;;;;7.50;7.50;;;;;8.59;82.47;98824.91;5076321;28;45495;-71
2022/11/23 06:46:21;;;;;;;;;8.75;8.50;;;;;8.60;82.79;98819.59;5091770;27;47878;-73
2022/11/23 06:48:47;;;;;;;;;8.00;8.00;;;;;8.65;82.72;98818.47;5076834;27;45442;-72
2022/11/23 06:51:14;;;;;;;;;8.50;7.50;;;;;8.68;82.63;98806.00;5075953;28;45346;-72
2022/11/23 06:53:39;;;;;;;;;9.00;9.00;;;;;8.67;82.12;98803.50;5076260;27;45604;-73
2022/11/23 06:56:05;;;;;;;;;16.25;16.25;;;;;8.69;82.19;98799.84;5076069;27;46031;-75
2022/11/23 06:58:31;;;;;;;;;6.50;6.50;;;;;8.70;82.01;98805.94;5075490;27;45426;-74
2022/11/23 07:01:01;;;;;;;;;9.00;9.00;;;;;8.65;82.12;98802.75;5076769;27;45271;-73
2022/11/23 07:03:27;;;;;;;;;7.75;7.25;;;;;8.68;81.84;98803.41;5092305;27;45560;-73
2022/11/23 07:05:52;;;;;;;;;7.75;7.75;;;;;8.68;81.84;98803.41;5076030;27;46283;-73
2022/11/23 07:08:18;;;;;;;;;9.25;9.25;;;;;8.67;81.89;98796.47;5076413;28;45430;-72
2022/11/23 07:10:43;;;;;;;;;5.50;5.50;;;;;8.66;81.76;98793.94;5075200;28;45385;-73
2022/11/23 07:13:10;;;;;;;;;6.50;6.50;;;;;8.65;81.69;98793.09;5076511;27;45346;-76
2022/11/23 07:15:36;;;;;;;;;10.50;10.50;;;;;8.66;81.58;98794.78;5076283;27;46288;-76
2022/11/23 07:18:02;;;;;;;;;8.75;8.75;;;;;8.67;81.65;98796.47;5074199;28;45386;-73
2022/11/23 07:20:27;;;;;;;;;14.50;13.75;;;;;8.69;81.66;98801.63;5075985;27;45345;-73
2022/11/23 07:23:07;;;;;;;;;6.25;6.25;;;;;8.66;80.64;98783.47;5076991;27;45389;-74
2022/11/23 07:25:34;;;;;;;;;8.50;8.00;;;;;8.64;80.87;98786.16;5076571;28;46395;-78
2022/11/23 07:28:01;;;;;;;;;7.25;7.25;;;;;8.66;80.69;98796.56;5076247;28;45341;-75
2022/11/23 07:30:29;;;;;;;;;5.00;5.00;;;;;8.70;80.58;98809.38;5071258;28;45729;-76
2022/11/23 07:33:02;;;;;;;;;6.50;6.50;;;;;8.72;80.38;98809.31;5062751;28;46105;-74
2022/11/23 07:35:29;;;;;;;;;6.00;6.00;;;;;8.73;80.27;98811.00;5055004;28;46327;-74
2022/11/23 07:37:54;;;;;;;;;9.50;9.50;;;;;8.79;80.74;98817.63;5055324;28;45451;-79
2022/11/23 07:40:20;;;;;;;;;7.50;7.50;;;;;8.77;80.20;98822.97;5062202;28;45472;-73
2022/11/23 07:42:45;;;;;;;;;9.25;9.25;;;;;8.80;80.10;98819.31;5081603;27;45391;-74
2022/11/23 07:45:11;;;;;;;;;7.00;5.50;;;;;8.79;79.58;98809.75;5068411;28;45429;-73
2022/11/23 07:47:37;;;;;;;;;5.00;5.00;;;;;8.79;79.52;98813.25;5091904;27;45378;-77
2022/11/23 07:50:06;;;;;;;;;6.50;6.50;;;;;8.82;79.37;98804.31;5070593;27;45549;-73
2022/11/23 07:52:31;;;;;;;;;5.50;5.50;;;;;8.85;79.10;98810.25;5055858;28;45253;-75
2022/11/23 07:54:56;;;;;;;;;5.25;5.25;;;;;8.92;79.00;98815.94;5065562;28;45556;-76
2022/11/23 07:57:22;;;;;;;;;9.00;9.00;;;;;8.84;79.22;98792.81;5072299;28;45397;-74
2022/11/23 07:59:47;;;;;;;;;8.50;8.50;;;;;8.85;79.44;98810.25;5075271;28;45293;-75
2022/11/23 08:02:14;;;;;;;;;9.00;8.00;;;;;8.82;79.92;98807.81;5076353;27;45263;-71
2022/11/23 08:04:39;;;;;;;;;8.00;8.00;;;;;8.87;80.17;98802.25;5074280;28;47111;-71
2022/11/23 08:07:05;;;;;;;;;6.50;6.50;;;;;8.86;80.30;98817.16;5074288;28;45476;-71
2022/11/23 08:09:31;;;;;;;;;6.00;6.00;;;;;8.86;79.67;98811.91;5075539;28;45243;-72
2022/11/23 08:11:56;;;;;;;;;18.00;16.25;;;;;8.83;80.03;98801.63;5073720;28;45351;-71
2022/11/23 08:14:22;;;;;;;;;7.00;7.00;;;;;8.88;79.77;98810.03;5075202;27;45287;-69
2022/11/23 08:16:49;;;;;;;;;4.50;4.50;;;;;8.90;79.92;98813.41;5075548;28;45439;-79
2022/11/23 08:19:15;;;;;;;;;9.25;9.25;;;;;8.83;79.92;98804.25;5073486;28;45307;-71
2022/11/23 08:21:40;;;;;;;;;4.25;4.25;;;;;8.91;79.94;98809.00;5075614;28;45173;-69
2022/11/23 08:24:06;;;;;;;;;6.50;6.50;;;;;8.88;80.02;98786.44;5075078;28;45411;-66
2022/11/23 08:26:31;;;;;;;;;7.00;7.00;;;;;8.95;80.88;98807.03;5075137;28;45254;-67
2022/11/23 08:28:56;;;;;;;;;6.75;6.75;;;;;8.97;80.58;98797.31;5075811;27;45239;-69
2022/11/23 08:31:22;;;;;;;;;5.25;5.25;;;;;8.98;80.37;98785.88;5082195;27;45272;-74
2022/11/23 08:33:47;;;;;;;;;9.25;9.25;;;;;9.01;80.30;98769.94;5075612;27;45456;-71
2022/11/23 08:36:13;;;;;;;;;8.25;8.25;;;;;9.06;80.37;98766.09;5074781;28;45362;-72
2022/11/23 08:38:38;;;;;;;;;9.50;9.50;;;;;9.14;80.34;98767.41;5074758;28;45351;-71
2022/11/23 08:41:04;;;;;;;;;9.00;9.00;;;;;9.16;79.87;98763.72;5074819;28;45517;-71
2022/11/23 08:43:30;;;;;;;;;9.75;9.75;;;;;9.20;79.45;98774.88;5074227;28;46539;-72
2022/11/23 08:45:56;;;;;;;;;2.50;2.50;;;;;9.17;79.10;98749.66;5074312;28;45311;-72
2022/11/23 08:48:22;;;;;;;;;4.00;4.00;;;;;9.24;79.04;98754.53;5074746;27;45527;-71
2022/11/23 08:50:47;;;;;;;;;7.00;7.00;;;;;9.27;79.31;98733.34;5074544;28;45346;-70
2022/11/23 08:53:13;;;;;;;;;6.25;6.25;;;;;9.33;78.35;98730.31;5074072;27;46330;-71
2022/11/23 08:55:38;;;;;;;;;3.25;3.25;;;;;9.41;78.55;98721.97;5074135;28;45406;-72
2022/11/23 08:58:03;;;;;;;;;5.00;5.00;;;;;9.44;78.24;98712.09;5074180;28;45292;-71
2022/11/23 09:00:29;;;;;;;;;4.25;4.25;;;;;9.44;77.98;98712.09;5072980;28;45323;-71
2022/11/23 09:02:58;;;;;;;;;5.00;5.00;;;;;9.47;77.73;98721.56;5072727;28;47817;-70
2022/11/23 09:05:24;;;;;;;;;6.50;6.50;;;;;9.48;77.97;98729.31;5074270;28;45478;-71
2022/11/23 09:07:50;;;;;;;;;7.75;7.75;;;;;9.48;77.92;98731.13;5074071;28;45457;-70
2022/11/23 09:10:16;;;;;;;;;5.00;5.00;;;;;9.47;77.53;98717.13;5077962;28;45550;-73
2022/11/23 09:12:41;;;;;;;;;4.00;3.50;;;;;9.50;77.93;98721.34;5077745;28;45310;-72
2022/11/23 09:15:07;;;;;;;;;3.75;3.75;;;;;9.49;77.70;98710.00;5076106;28;45369;-73
2022/11/23 09:17:33;;;;;;;;;3.50;3.50;;;;;9.48;78.25;98708.31;5078157;27;45330;-73
2022/11/23 09:19:59;;;;;;;;;6.00;6.00;;;;;9.47;78.26;98705.81;5076579;28;45472;-69
2022/11/23 09:22:25;;;;;;;;;4.50;4.50;;;;;9.49;78.86;98706.56;5076325;28;45344;-72
2022/11/23 09:24:51;;;;;;;;;5.75;5.75;;;;;9.54;78.89;98707.09;5076507;28;45865;-71
2022/11/23 09:27:17;;;;;;;;;153.50;138.00;;;;;9.52;79.09;98697.63;5077443;28;45434;-71
2022/11/23 09:29:42;;;;;;;;;6.75;6.75;;;;;9.54;79.13;98701.84;5077793;28;45612;-70
2022/11/23 09:32:08;;;;;;;;;6.00;6.00;;;;;9.55;78.83;98707.94;5077200;28;45329;-72
2022/11/23 09:34:33;;;;;;;;;7.75;7.75;;;;;9.49;78.96;98702.13;5077095;28;45180;-71
2022/11/23 09:36:59;;;;;;;;;6.00;6.00;;;;;9.52;78.69;98698.47;5076088;28;45457;-71
2022/11/23 09:39:24;;;;;;;;;4.00;4.00;;;;;9.46;79.30;98693.63;5078143;28;45319;-71
2022/11/23 09:42:00;;;;;;;;;8.00;6.75;;;;;9.50;79.41;98698.56;5077151;27;46444;-70
2022/11/23 09:44:32;;;;;;;;;5.75;5.75;;;;;9.48;79.36;98695.19;5076193;28;45325;-71
2022/11/23 09:47:07;;;;;;;;;5.25;5.25;;;;;9.47;80.00;98692.69;5077421;27;45219;-71
2022/11/23 09:50:00;;;;;;;;;5.00;5.00;;;;;9.45;80.17;98697.19;5076588;28;45580;-71
2022/11/23 09:52:28;;;;;;;;;17.75;17.75;;;;;9.43;80.30;98683.34;5055948;28;46750;-72
2022/11/23 09:54:58;;;;;;;;;7.25;7.00;;;;;9.42;80.70;98687.72;5075516;28;45252;-72
2022/11/23 09:57:30;;;;;;;;;6.00;6.00;;;;;9.42;80.87;98681.66;5077378;28;45259;-72
2022/11/23 10:00:07;;;;;;;;;4.00;4.00;;;;;9.41;80.93;98680.81;5077555;27;45275;-72
2022/11/23 10:02:40;;;;;;;;;7.50;7.50;;;;;9.34;81.35;98669.88;5076704;28;45999;-73
2022/11/23 10:05:10;;;;;;;;;4.00;4.00;;;;;9.32;81.82;98684.03;5076877;28;45334;-73
2022/11/23 10:07:48;;;;;;;;;3.00;3.00;;;;;9.29;82.13;98679.84;5077301;27;45303;-72
2022/11/23 10:10:23;;;;;;;;;6.00;6.00;;;;;9.27;82.63;98681.72;5077809;28;45406;-73
2022/11/23 10:13:33;;;;;;;;;4.00;4.00;;;;;9.21;82.79;98672.47;5076822;28;45457;-72
2022/11/23 10:16:43;;;;;;;;;5.50;5.25;;;;;9.18;83.17;98670.03;5076999;28;45440;-70
2022/11/23 10:19:44;;;;;;;;;5.50;5.50;;;;;9.19;83.41;98666.47;5059931;27;45499;-72
2022/11/23 10:22:25;;;;;;;;;4.00;4.00;;;;;9.16;83.83;98671.91;5076852;28;45440;-70
2022/11/23 10:24:52;;;;;;;;;7.25;7.25;;;;;9.15;83.92;98693.03;5076188;28;45362;-72
2022/11/23 10:27:23;;;;;;;;;7.50;7.50;;;;;9.08;84.58;98692.56;5074970;28;45375;-73
2022/11/23 10:29:51;;;;;;;;;6.00;6.00;;;;;9.06;84.80;98695.28;5077249;28;45379;-72
2022/11/23 10:32:35;;;;;;;;;14.50;14.50;;;;;9.03;85.06;98692.88;5076962;28;45301;-74
2022/11/23 10:35:09;;;;;;;;;7.50;7.50;;;;;9.00;85.32;98700.06;5076370;28;45369;-73
2022/11/23 10:37:39;;;;;;;;;7.25;7.25;;;;;8.94;85.82;98695.22;5076616;28;45361;-73
2022/11/23 10:40:17;;;;;;;;;7.50;7.50;;;;;8.92;85.88;98711.03;5076693;28;45790;-73
2022/11/23 10:42:52;;;;;;;;;6.75;6.75;;;;;8.87;86.44;98711.34;5076816;27;45353;-73
2022/11/23 10:45:22;;;;;;;;;24.00;24.00;;;;;8.84;86.53;98719.41;5076327;28;46163;-72
2022/11/23 10:47:51;;;;;;;;;11.50;11.50;;;;;8.82;87.53;98708.19;5076325;27;45411;-72
2022/11/23 10:50:36;;;;;;;;;10.00;10.00;;;;;8.88;87.63;98722.66;5076425;27;45411;-71
2022/11/23 10:53:04;;;;;;;;;8.50;8.50;;;;;8.87;87.65;98736.72;5075853;28;45316;-70
2022/11/23 10:55:32;;;;;;;;;7.25;7.25;;;;;8.84;87.77;98723.78;5076860;28;46173;-70
2022/11/23 10:57:58;;;;;;;;;9.00;9.00;;;;;8.85;87.59;98726.34;5076303;27;45521;-70
2022/11/23 11:00:26;;;;;;;;;9.50;9.50;;;;;8.76;87.92;98704.16;5074493;28;45287;-72
2022/11/23 11:02:54;;;;;;;;;8.50;8.50;;;;;8.97;88.16;98731.75;5076191;27;45185;-71
2022/11/23 11:05:25;;;;;;;;;7.25;7.25;;;;;8.98;87.57;98729.00;5075872;27;46393;-71
2022/11/23 11:07:51;;;;;;;;;8.75;8.75;;;;;9.02;88.14;98734.91;5075912;27;45192;-72
2022/11/23 11:10:41;;;;;;;;;10.50;9.25;;;;;9.04;87.68;98727.78;5076107;28;45290;-70
2022/11/23 11:13:41;;;;;;;;;7.50;7.50;;;;;9.09;87.95;98725.72;5076222;28;45315;-72
2022/11/23 11:16:26;;;;;;;;;9.00;9.00;;;;;9.18;87.78;98727.75;5053148;28;45486;-73
2022/11/23 11:18:51;;;;;;;;;8.25;8.25;;;;;9.21;87.85;98724.09;5075765;28;45369;-72
2022/11/23 11:21:43;;;;;;;;;11.75;11.75;;;;;9.30;87.88;98725.28;5075921;28;45323;-70
2022/11/23 11:24:17;;;;;;;;;12.50;12.50;;;;;9.30;87.82;98735.75;5073604;28;45269;-70
2022/11/23 11:26:52;;;;;;;;;9.00;9.00;;;;;9.33;87.70;98736.41;5074053;28;46304;-73
2022/11/23 11:29:38;;;;;;;;;8.50;8.50;;;;;9.37;88.21;98744.91;5075519;28;45495;-72
2022/11/23 11:32:22;;;;;;;;;8.75;8.75;;;;;9.42;88.43;98750.72;5074293;27;45314;-73
2022/11/23 11:35:09;;;;;;;;;8.75;8.75;;;;;9.44;88.34;98754.06;5076136;28;45400;-72
2022/11/23 11:37:50;;;;;;;;;15.50;15.50;;;;;9.54;88.78;98753.47;5076095;27;46251;-73
2022/11/23 11:40:34;;;;;;;;;12.50;12.50;;;;;9.62;88.70;98772.22;5075535;28;45461;-74